Date,TemperatureHighF,TemperatureAvgF,TemperatureLowF,DewpointHighF,DewpointAvgF,DewpointLowF,HumidityHigh,HumidityAvg,HumidityLow,PressureMaxIn,PressureMinIn,WindSpeedMaxMPH,WindSpeedAvgMPH,GustSpeedMaxMPH,PrecipitationSumIn
2013-11-1,44.6,42.5,41.2,38.6,33.4,27.7,88,70,58,29.64,29.14,17,4,17,0.00
2013-11-2,42.6,40.3,37.6,35.1,28.0,17.9,81,63,37,30.02,29.64,11,4,11,0.05
2013-11-3,51.1,40.2,29.5,39.0,21.7,11.6,91,52,24,30.17,30.02,13,3,15,0.00
2013-11-4,53.6,47.3,42.4,31.4,21.1,15.9,51,36,26,30.11,29.91,18,6,22,0.00
2013-11-5,55.0,49.5,45.3,48.8,35.6,27.3,92,61,35,30.14,29.76,13,3,17,0.59
2013-11-6,53.4,41.2,30.9,52.9,27.4,5.4,98,62,30,30.02,29.61,23,7,23,0.27
2013-11-7,41.0,32.0,24.6,16.2,9.9,6.7,61,40,26,30.08,30.02,11,3,13,0.00
2013-11-8,43.0,34.7,23.7,26.0,14.9,10.0,85,48,29,30.14,29.67,15,4,20,0.00
2013-11-9,48.9,43.8,38.1,22.0,15.1,6.6,42,31,26,29.93,29.61,23,8,23,0.00
2013-11-10,47.1,40.6,37.6,11.5,9.2,6.5,30,27,22,30.17,29.93,17,7,21,0.00
2013-11-11,41.2,30.8,23.4,25.2,5.9,-5.5,75,36,26,30.41,29.93,20,8,24,0.05
2013-11-12,28.4,22.0,17.1,-0.9,-3.9,-7.6,43,32,23,30.55,30.38,15,5,16,0.00
2013-11-13,41.0,29.4,17.1,4.1,-0.3,-4.9,45,28,21,30.38,29.88,26,9,26,0.00
2013-11-14,46.8,37.2,29.7,14.6,6.3,-1.0,40,27,22,29.88,29.73,18,6,18,0.00
2013-11-15,54.5,40.6,31.5,19.0,14.6,12.1,51,35,23,29.79,29.76,13,3,13,0.00
2013-11-16,57.0,46.5,34.3,50.1,38.0,13.8,96,73,42,29.76,29.34,20,7,22,0.16
2013-11-17,56.8,49.2,38.8,49.5,36.8,11.5,89,64,32,29.52,29.08,24,7,29,1.19
2013-11-18,38.8,31.3,25.2,13.2,5.2,2.1,38,33,30,30.11,29.49,23,9,25,0.00
2013-11-19,43.2,29.6,19.8,17.8,6.9,1.9,57,39,23,30.23,30.08,12,3,13,0.00
2013-11-20,40.6,35.8,31.3,27.0,12.6,4.8,70,40,23,30.11,29.96,20,5,20,0.00
2013-11-21,42.3,38.2,35.6,32.5,26.5,20.8,79,64,43,30.14,29.99,12,3,13,0.00
2013-11-22,36.0,29.4,23.4,25.8,7.3,-5.7,75,42,25,30.32,30.11,18,7,18,0.00
2013-11-23,24.8,15.5,9.1,-3.4,-12.1,-18.0,33,28,25,30.55,30.26,22,10,24,0.00
2013-11-24,25.5,16.0,6.8,-6.4,-13.0,-20.1,29,26,24,30.53,30.05,21,6,22,0.00
2013-11-25,30.7,25.7,21.2,11.7,4.3,-9.1,58,40,24,30.05,29.82,24,8,26,0.00
2013-11-26,31.3,23.4,11.3,10.4,-2.8,-14.8,43,31,23,30.05,29.85,21,8,24,0.00
2013-11-27,25.9,17.9,9.5,1.7,-8.8,-16.3,43,30,24,30.11,30.02,15,5,16,0.00
2013-11-28,25.7,21.1,15.1,2.9,-1.9,-7.2,45,36,31,30.35,29.99,13,3,13,0.00
2013-11-29,30.4,20.7,9.3,5.4,-1.8,-8.6,58,37,25,30.44,30.17,10,2,13,0.00
2013-11-30,42.3,33.1,26.1,11.5,7.9,2.5,42,35,28,30.17,29.88,13,4,15,0.00